Time;durP1;ratioP1;P1;durP2;ratioP2;P2;SDS_P1;SDS_P2;PMS_P1;PMS_P2;Temp;Humidity;BMP_temperature;BMP_pressure;BME280_temperature;BME280_humidity;BME280_pressure;Samples;Min_cycle;Max_cycle;Signal;HPM_P1;HPM_P2
2023/03/17 00:00:52;;;;;;;9.27;4.10;;;;;;;8.95;51.62;99498.84;5023050;28;20139;-73
2023/03/17 00:03:24;;;;;;;6.50;3.90;;;;;;;9.24;52.14;99488.84;5019093;28;20052;-73
2023/03/17 00:05:52;;;;;;;8.60;4.20;;;;;;;9.01;51.78;99500.88;5059551;28;20126;-73
2023/03/17 00:08:47;;;;;;;8.90;4.00;;;;;;;9.42;51.84;99500.28;5042191;28;20036;-74
2023/03/17 00:11:15;;;;;;;5.43;3.70;;;;;;;9.06;51.75;99498.63;4982184;28;20501;-72
2023/03/17 00:13:42;;;;;;;8.57;4.07;;;;;;;9.03;51.80;99504.22;5031246;28;20457;-72
2023/03/17 00:16:18;;;;;;;7.07;4.33;;;;;;;9.73;51.41;99504.13;5014254;28;20088;-73
2023/03/17 00:18:45;;;;;;;10.90;4.13;;;;;;;9.62;49.75;99509.69;5031158;28;20136;-73
2023/03/17 00:21:18;;;;;;;8.17;4.80;;;;;;;9.96;49.54;99507.09;5046221;28;20062;-74
2023/03/17 00:23:47;;;;;;;7.17;4.20;;;;;;;9.90;49.43;99513.84;5075351;28;20079;-73
2023/03/17 00:26:14;;;;;;;7.70;4.40;;;;;;;9.67;49.08;99506.59;5058627;28;20383;-73
2023/03/17 00:28:40;;;;;;;10.10;4.30;;;;;;;9.52;49.29;99508.09;5058835;28;20051;-74
2023/03/17 00:31:15;;;;;;;6.03;3.97;;;;;;;9.79;49.50;99506.16;5059988;28;20650;-74
2023/03/17 00:33:42;;;;;;;10.38;4.18;;;;;;;9.60;49.86;99511.66;5075554;28;20035;-74
2023/03/17 00:36:14;;;;;;;7.57;4.07;;;;;;;9.76;49.68;99508.28;5059648;28;20479;-75
2023/03/17 00:38:40;;;;;;;7.77;4.20;;;;;;;9.38;49.53;99514.81;5043265;28;20044;-74
2023/03/17 00:41:08;;;;;;;10.97;4.30;;;;;;;9.40;49.86;99509.34;5026535;28;20483;-74
2023/03/17 00:43:35;;;;;;;5.67;3.93;;;;;;;9.18;50.07;99518.59;5076118;28;20056;-73
2023/03/17 00:46:00;;;;;;;6.93;4.37;;;;;;;9.06;50.06;99513.69;5074311;28;20447;-75
2023/03/17 00:48:27;;;;;;;7.57;4.10;;;;;;;9.24;50.28;99511.88;5041962;28;20054;-73
2023/03/17 00:50:53;;;;;;;7.40;4.00;;;;;;;8.96;50.41;99515.59;5058579;28;20108;-73
2023/03/17 00:53:22;;;;;;;7.83;3.77;;;;;;;9.13;50.64;99514.75;5057879;28;20134;-73
2023/03/17 00:55:48;;;;;;;7.57;4.00;;;;;;;8.96;50.60;99521.72;5075346;28;20051;-73
2023/03/17 00:58:32;;;;;;;8.60;4.27;;;;;;;9.32;51.19;99506.63;5058109;28;20043;-73
2023/03/17 01:00:58;;;;;;;7.17;4.00;;;;;;;8.85;50.96;99508.69;5025029;28;20040;-80
2023/03/17 01:03:25;;;;;;;9.17;4.33;;;;;;;8.86;51.11;99505.06;5074534;28;20083;-73
2023/03/17 01:05:52;;;;;;;9.20;4.53;;;;;;;8.97;50.97;99507.47;5075019;28;20098;-73
2023/03/17 01:08:19;;;;;;;7.10;4.40;;;;;;;8.97;51.08;99522.53;5074528;28;20062;-73
2023/03/17 01:10:45;;;;;;;7.23;4.13;;;;;;;8.78;51.13;99526.16;5041145;28;20071;-73
2023/03/17 01:13:13;;;;;;;7.23;4.33;;;;;;;9.09;51.41;99538.06;5041041;28;20042;-73
2023/03/17 01:15:42;;;;;;;11.03;4.47;;;;;;;9.10;51.36;99537.06;5058030;28;20043;-73
2023/03/17 01:18:10;;;;;;;6.03;3.80;;;;;;;9.09;51.31;99530.09;5074461;28;20397;-73
2023/03/17 01:20:37;;;;;;;9.27;4.63;;;;;;;8.74;51.16;99508.91;5074637;28;20447;-73
2023/03/17 01:23:03;;;;;;;10.77;4.30;;;;;;;8.81;51.30;99538.28;5074150;28;20040;-74
2023/03/17 01:25:29;;;;;;;5.97;3.90;;;;;;;8.93;51.37;99551.16;5074563;28;20139;-74
2023/03/17 01:27:56;;;;;;;6.70;4.30;;;;;;;9.09;51.24;99551.31;5057698;28;20437;-75
2023/03/17 01:30:27;;;;;;;6.33;4.73;;;;;;;9.24;51.83;99557.72;5091350;28;20126;-74
2023/03/17 01:32:54;;;;;;;9.57;4.43;;;;;;;9.13;51.33;99571.22;5090991;28;20392;-74
2023/03/17 01:35:21;;;;;;;10.37;5.00;;;;;;;9.11;51.36;99572.34;5057363;28;20055;-75
2023/03/17 01:37:48;;;;;;;10.17;4.40;;;;;;;9.09;51.23;99580.44;5024382;28;20076;-73
2023/03/17 01:40:17;;;;;;;6.80;4.40;;;;;;;9.30;51.15;99583.63;5074309;28;20039;-72
2023/03/17 01:42:48;;;;;;;7.37;4.40;;;;;;;9.25;51.17;99580.63;5074381;28;20512;-73
2023/03/17 01:45:51;;;;;;;7.45;4.10;;;;;;;9.61;51.13;99602.66;5024427;28;20090;-72
2023/03/17 01:48:17;;;;;;;7.53;4.47;;;;;;;9.12;50.85;99604.00;5057147;28;20051;-73
2023/03/17 01:50:45;;;;;;;9.40;4.50;;;;;;;9.39;50.80;99601.31;5057240;28;20365;-74
2023/03/17 01:53:12;;;;;;;8.10;4.60;;;;;;;9.22;50.81;99610.06;5040607;28;20329;-73
2023/03/17 01:55:39;;;;;;;7.77;4.63;;;;;;;9.39;51.07;99616.34;5040509;28;20475;-74
2023/03/17 01:58:08;;;;;;;7.70;4.43;;;;;;;9.34;50.71;99613.31;5044689;28;20498;-74
2023/03/17 02:00:34;;;;;;;11.27;5.00;;;;;;;9.14;50.56;99607.34;5028182;28;20055;-74
2023/03/17 02:03:00;;;;;;;9.70;4.43;;;;;;;9.20;50.53;99614.69;5027998;28;20047;-74
2023/03/17 02:05:28;;;;;;;8.97;4.67;;;;;;;9.37;50.58;99613.03;5044304;28;20044;-72
2023/03/17 02:07:54;;;;;;;8.33;4.50;;;;;;;9.18;50.60;99621.94;5060993;28;20082;-72
2023/03/17 02:10:27;;;;;;;7.23;3.97;;;;;;;9.25;50.71;99615.06;5061656;28;20067;-72
2023/03/17 02:12:58;;;;;;;9.33;4.80;;;;;;;9.34;50.88;99629.22;5094438;28;20044;-74
2023/03/17 02:15:34;;;;;;;;;;;;;;;9.67;50.34;99636.50;5044345;28;20100;-74
2023/03/17 02:18:01;;;;;;;6.50;3.93;;;;;;;9.32;50.70;99636.47;5023044;28;20027;-73
2023/03/17 02:20:27;;;;;;;7.37;3.80;;;;;;;8.98;50.52;99644.22;5019455;28;20068;-72
2023/03/17 02:22:53;;;;;;;5.50;4.13;;;;;;;9.20;50.58;99654.44;5003062;28;20041;-73
2023/03/17 02:25:22;;;;;;;8.73;4.20;;;;;;;9.41;50.79;99654.16;5036197;28;20057;-73
2023/03/17 02:27:54;;;;;;;6.00;3.83;;;;;;;9.35;50.36;99660.88;5020366;28;20052;-74
2023/03/17 02:30:22;;;;;;;7.13;3.50;;;;;;;9.33;50.11;99656.72;5036102;28;20045;-73
2023/03/17 02:32:49;;;;;;;7.50;3.50;;;;;;;9.19;50.16;99667.81;5036094;28;20087;-73
2023/03/17 02:35:15;;;;;;;5.80;3.93;;;;;;;9.31;50.12;99675.44;5003140;28;20444;-74
2023/03/17 02:37:45;;;;;;;5.67;3.60;;;;;;;9.47;50.02;99670.28;4995915;28;20080;-72
2023/03/17 02:40:13;;;;;;;6.80;3.90;;;;;;;9.33;49.99;99668.13;4952702;28;20542;-72
2023/03/17 02:42:40;;;;;;;6.60;4.20;;;;;;;9.08;49.54;99675.97;4977054;28;20054;-72
2023/03/17 02:45:10;;;;;;;5.63;3.43;;;;;;;9.45;49.65;99682.88;4992748;28;20145;-73
2023/03/17 02:47:38;;;;;;;7.22;3.08;;;;;;;9.22;49.40;99694.88;5008962;28;20188;-73
2023/03/17 02:50:05;;;;;;;4.93;3.03;;;;;;;9.32;49.42;99694.78;4995213;28;20149;-76
2023/03/17 02:52:31;;;;;;;7.10;4.57;;;;;;;9.08;49.12;99695.34;5015883;28;20127;-74
2023/03/17 02:54:57;;;;;;;8.00;3.87;;;;;;;9.12;48.85;99703.84;4999225;28;20488;-73
2023/03/17 02:57:24;;;;;;;6.68;3.10;;;;;;;9.16;48.82;99706.06;4989755;28;20160;-74
2023/03/17 02:59:52;;;;;;;6.70;3.40;;;;;;;9.21;48.71;99711.72;4996241;28;20160;-73
2023/03/17 03:02:19;;;;;;;6.17;3.27;;;;;;;9.16;48.76;99710.50;4963261;28;20446;-74
2023/03/17 03:04:47;;;;;;;6.63;3.10;;;;;;;9.42;48.71;99716.78;4963736;28;20151;-73
2023/03/17 03:07:15;;;;;;;6.83;3.43;;;;;;;9.32;48.50;99706.22;4975833;28;20062;-73
2023/03/17 03:09:43;;;;;;;8.88;3.55;;;;;;;9.30;48.08;99723.28;4975817;28;20474;-72
2023/03/17 03:12:08;;;;;;;5.55;2.80;;;;;;;8.80;47.94;99714.84;5012207;28;20619;-71
2023/03/17 03:14:35;;;;;;;6.07;3.27;;;;;;;8.83;47.86;99737.53;4983023;28;20151;-70
2023/03/17 03:17:01;;;;;;;5.50;3.43;;;;;;;8.92;48.08;99742.81;5015573;28;20145;-71
2023/03/17 03:19:27;;;;;;;6.30;3.30;;;;;;;8.78;47.97;99743.28;4998954;28;20629;-73
2023/03/17 03:21:53;;;;;;;5.27;3.20;;;;;;;8.81;47.63;99747.47;5015329;28;20079;-71
2023/03/17 03:24:31;;;;;;;7.53;3.43;;;;;;;9.20;47.85;99754.28;4983891;28;20046;-73
2023/03/17 03:26:59;;;;;;;6.43;3.37;;;;;;;8.93;47.73;99752.44;5001048;28;20060;-72
2023/03/17 03:29:25;;;;;;;7.13;3.30;;;;;;;8.94;47.63;99754.09;4999247;28;20049;-67
2023/03/17 03:31:50;;;;;;;4.77;2.83;;;;;;;8.89;47.24;99759.00;5001098;28;20568;-69
2023/03/17 03:34:17;;;;;;;5.47;3.00;;;;;;;8.88;47.37;99753.84;5006302;28;20420;-68
2023/03/17 03:36:43;;;;;;;8.03;2.90;;;;;;;8.82;47.50;99765.03;4991601;28;20462;-71
2023/03/17 03:39:09;;;;;;;6.17;2.93;;;;;;;8.76;47.43;99762.94;5009134;28;20147;-71
2023/03/17 03:41:35;;;;;;;7.80;3.03;;;;;;;8.78;47.34;99767.13;5052939;28;20067;-72
2023/03/17 03:44:01;;;;;;;7.03;3.10;;;;;;;8.76;47.33;99777.03;5034464;28;20504;-72
2023/03/17 03:46:27;;;;;;;6.63;2.77;;;;;;;8.76;47.45;99768.25;5035223;28;20476;-70
2023/03/17 03:48:54;;;;;;;4.23;2.90;;;;;;;8.89;47.29;99766.94;4986337;28;20045;-70
2023/03/17 03:51:20;;;;;;;5.00;2.70;;;;;;;8.72;46.83;99778.28;5035634;28;20103;-71
2023/03/17 03:53:47;;;;;;;6.40;2.40;;;;;;;8.74;46.88;99778.97;5018620;28;20045;-70
2023/03/17 03:56:13;;;;;;;4.63;2.97;;;;;;;8.79;47.03;99795.28;5018177;28;20096;-72
2023/03/17 03:58:40;;;;;;;4.63;2.50;;;;;;;8.75;46.56;99790.41;4985502;28;20116;-72
2023/03/17 04:01:08;;;;;;;6.70;2.50;;;;;;;8.89;46.51;99797.91;5003007;28;20481;-74
2023/03/17 04:03:37;;;;;;;7.57;2.80;;;;;;;9.07;46.45;99791.69;5035585;28;20143;-70
2023/03/17 04:06:03;;;;;;;5.47;2.70;;;;;;;8.77;46.04;99804.31;5033963;28;20037;-74
2023/03/17 04:08:30;;;;;;;3.60;2.57;;;;;;;8.70;45.93;99808.53;4985291;28;20059;-70
2023/03/17 04:10:57;;;;;;;3.50;2.40;;;;;;;8.96;45.96;99815.72;5040459;28;20139;-70
2023/03/17 04:13:23;;;;;;;6.53;2.70;;;;;;;8.82;45.59;99824.13;5018550;28;20053;-70
2023/03/17 04:15:49;;;;;;;4.77;2.77;;;;;;;8.95;45.39;99821.19;5018417;28;20136;-69
2023/03/17 04:18:15;;;;;;;4.77;2.53;;;;;;;8.85;45.27;99826.50;5035115;28;20095;-69
2023/03/17 04:20:41;;;;;;;3.20;2.27;;;;;;;8.85;44.98;99836.22;5034655;28;20063;-68
2023/03/17 04:23:07;;;;;;;4.60;2.00;;;;;;;8.85;44.82;99825.66;5018879;28;20041;-70
2023/03/17 04:25:33;;;;;;;5.50;2.30;;;;;;;8.83;44.68;99840.84;5001850;28;20076;-69
2023/03/17 04:27:58;;;;;;;5.63;1.93;;;;;;;8.82;44.78;99844.47;5025042;28;20036;-70
2023/03/17 04:30:25;;;;;;;6.67;2.33;;;;;;;8.84;44.35;99853.94;5021782;28;20114;-69
2023/03/17 04:32:50;;;;;;;4.07;2.07;;;;;;;8.81;44.08;99861.34;5005638;28;20044;-71
2023/03/17 04:35:18;;;;;;;3.37;1.87;;;;;;;9.12;44.34;99876.06;5037231;28;20077;-69
2023/03/17 04:37:44;;;;;;;4.93;1.87;;;;;;;8.85;43.97;99873.31;5054763;28;20044;-70
2023/03/17 04:40:12;;;;;;;3.10;2.03;;;;;;;9.05;44.20;99877.59;5005425;28;20059;-73
2023/03/17 04:42:39;;;;;;;4.83;2.20;;;;;;;8.78;43.84;99849.19;5054739;28;20365;-70
2023/03/17 04:45:06;;;;;;;2.60;1.70;;;;;;;9.09;43.77;99882.47;5037833;28;20037;-69
2023/03/17 04:47:32;;;;;;;3.23;1.97;;;;;;;8.91;43.65;99893.94;5021365;28;20392;-70
2023/03/17 04:49:58;;;;;;;8.30;2.10;;;;;;;8.81;43.27;99883.34;5021429;28;20052;-69
2023/03/17 04:52:23;;;;;;;5.07;1.70;;;;;;;8.76;42.87;99869.72;5036153;28;20139;-70
2023/03/17 04:54:49;;;;;;;3.03;1.60;;;;;;;8.76;42.98;99874.16;5019267;28;20041;-69
2023/03/17 04:57:15;;;;;;;7.07;1.63;;;;;;;8.73;42.41;99880.59;5019193;28;20367;-70
2023/03/17 04:59:41;;;;;;;6.30;1.73;;;;;;;8.80;42.63;99892.28;5020023;28;20102;-70
2023/03/17 05:02:07;;;;;;;3.70;1.73;;;;;;;8.74;42.45;99882.25;5037706;28;20053;-70
2023/03/17 05:04:33;;;;;;;3.83;1.50;;;;;;;8.81;42.04;99886.00;5037995;28;20076;-70
2023/03/17 05:06:59;;;;;;;3.17;1.60;;;;;;;8.90;41.74;99913.47;5004836;28;20086;-69
2023/03/17 05:09:25;;;;;;;3.50;1.80;;;;;;;8.89;41.61;99920.56;5021308;28;20045;-70
2023/03/17 05:11:51;;;;;;;3.27;1.73;;;;;;;8.89;41.36;99927.69;5037443;28;20097;-72
2023/03/17 05:14:17;;;;;;;4.23;1.70;;;;;;;8.93;41.15;99932.56;5021229;28;20056;-70
2023/03/17 05:16:46;;;;;;;1.97;1.30;;;;;;;9.22;41.03;99937.81;5021300;28;20040;-70
2023/03/17 05:19:11;;;;;;;3.63;1.70;;;;;;;8.92;41.01;99941.47;5037925;28;20126;-72
2023/03/17 05:21:37;;;;;;;2.10;1.60;;;;;;;9.03;40.94;99936.03;5021385;28;20076;-70
2023/03/17 05:24:04;;;;;;;2.80;1.50;;;;;;;9.11;40.39;99938.81;5037529;28;20102;-69
2023/03/17 05:26:29;;;;;;;1.33;1.20;;;;;;;9.10;40.37;99938.97;5004984;28;20476;-70
2023/03/17 05:28:55;;;;;;;4.63;1.67;;;;;;;9.12;39.97;99937.84;5021407;28;20051;-69
2023/03/17 05:31:21;;;;;;;7.03;1.60;;;;;;;9.21;39.88;99950.22;5007434;28;20040;-70
2023/03/17 05:33:48;;;;;;;2.07;1.50;;;;;;;9.27;39.77;99954.97;5027731;28;20076;-70
2023/03/17 05:36:14;;;;;;;4.07;1.70;;;;;;;9.46;39.67;99962.03;5027819;28;20102;-71
2023/03/17 05:38:41;;;;;;;2.47;1.50;;;;;;;9.39;39.75;99955.66;5061042;28;20087;-70
2023/03/17 05:41:06;;;;;;;4.85;1.50;;;;;;;9.40;39.13;99962.63;5060739;28;20403;-69
2023/03/17 05:43:32;;;;;;;1.83;1.38;;;;;;;9.51;38.67;99970.41;5027674;28;20410;-70
2023/03/17 05:45:59;;;;;;;3.33;1.27;;;;;;;9.45;38.62;99963.88;5027799;28;20040;-70
2023/03/17 05:48:25;;;;;;;3.25;1.50;;;;;;;9.59;38.36;99966.06;5027708;28;20075;-70
2023/03/17 05:50:51;;;;;;;1.80;1.40;;;;;;;9.64;38.27;99971.75;5027728;28;20052;-70
2023/03/17 05:53:17;;;;;;;3.65;1.63;;;;;;;9.72;38.01;99971.03;5027495;28;20480;-69
2023/03/17 05:55:43;;;;;;;2.55;1.40;;;;;;;9.76;37.85;99967.94;5028099;28;20051;-69
2023/03/17 05:58:09;;;;;;;3.13;1.50;;;;;;;9.61;37.59;99981.84;5060932;28;20127;-70
2023/03/17 06:00:36;;;;;;;5.63;1.67;;;;;;;9.78;37.50;99986.38;5027625;28;20143;-69
2023/03/17 06:03:03;;;;;;;2.95;1.25;;;;;;;9.87;37.51;99983.69;5060809;28;20091;-70
2023/03/17 06:05:29;;;;;;;3.28;1.38;;;;;;;9.96;37.27;99985.47;5011082;28;20032;-72
2023/03/17 06:07:55;;;;;;;4.05;1.30;;;;;;;9.95;37.18;99990.91;5027442;28;20542;-70
2023/03/17 06:10:22;;;;;;;3.13;1.63;;;;;;;9.98;37.11;99983.50;5010936;28;20040;-69
2023/03/17 06:12:47;;;;;;;3.40;1.40;;;;;;;9.97;36.62;99992.47;5027612;28;20053;-70
2023/03/17 06:15:15;;;;;;;3.15;1.75;;;;;;;10.08;36.72;100000.28;5027609;28;20125;-70
2023/03/17 06:17:41;;;;;;;4.15;1.40;;;;;;;9.98;35.79;99994.13;5044319;28;20376;-71
2023/03/17 06:20:10;;;;;;;3.30;1.40;;;;;;;10.37;35.79;100005.44;5027505;28;20075;-70
2023/03/17 06:22:36;;;;;;;3.42;1.60;;;;;;;10.30;36.09;100003.53;5060630;28;20361;-70
2023/03/17 06:25:03;;;;;;;2.63;1.42;;;;;;;10.24;36.12;100004.94;5011039;28;20488;-70
2023/03/17 06:27:29;;;;;;;5.15;1.67;;;;;;;10.40;35.87;100004.31;5043969;28;20496;-70
2023/03/17 06:29:56;;;;;;;3.47;1.60;;;;;;;10.36;35.81;100003.78;5027525;28;20052;-70
2023/03/17 06:32:22;;;;;;;6.07;1.33;;;;;;;10.51;35.34;100012.91;5044026;28;20048;-70
2023/03/17 06:34:48;;;;;;;3.28;1.55;;;;;;;10.48;34.96;100007.91;5027400;28;20056;-70
2023/03/17 06:37:14;;;;;;;5.07;1.42;;;;;;;10.60;35.18;100016.50;5011022;28;20097;-70
2023/03/17 06:39:41;;;;;;;3.28;1.42;;;;;;;10.62;35.00;100025.16;5043543;28;20044;-70
2023/03/17 06:42:06;;;;;;;5.45;1.92;;;;;;;10.72;35.11;100020.59;5042997;28;20395;-70
2023/03/17 06:44:35;;;;;;;9.65;2.00;;;;;;;10.78;34.78;100034.13;5041150;28;20037;-70
2023/03/17 06:47:01;;;;;;;2.50;1.40;;;;;;;10.82;34.77;100038.19;5024200;28;20044;-70
2023/03/17 06:49:27;;;;;;;3.15;1.52;;;;;;;10.98;34.77;100043.66;5007535;28;20046;-70
2023/03/17 06:51:56;;;;;;;3.10;1.67;;;;;;;11.02;34.50;100038.88;5057265;28;20106;-70
2023/03/17 06:54:23;;;;;;;2.40;1.77;;;;;;;11.05;34.27;100035.91;5024039;28;20045;-69
2023/03/17 06:56:49;;;;;;;3.85;1.52;;;;;;;11.18;33.97;100029.22;5024074;28;20476;-70
2023/03/17 06:59:15;;;;;;;3.80;2.03;;;;;;;11.29;33.83;100039.63;5007672;28;20152;-72
2023/03/17 07:01:41;;;;;;;2.53;1.50;;;;;;;11.42;33.71;100036.59;5023693;28;20139;-70
2023/03/17 07:04:08;;;;;;;4.10;1.38;;;;;;;11.60;33.66;100032.06;5040017;28;20105;-71
2023/03/17 07:06:34;;;;;;;5.00;1.70;;;;;;;11.77;33.17;100041.88;5040183;28;20209;-70
2023/03/17 07:09:01;;;;;;;6.40;1.50;;;;;;;11.89;32.94;100045.94;5007491;28;20476;-70
2023/03/17 07:11:28;;;;;;;5.22;1.67;;;;;;;11.98;32.14;100050.34;5023558;28;20074;-69
2023/03/17 07:13:54;;;;;;;5.60;1.63;;;;;;;12.05;32.11;100040.75;5007458;28;20500;-70
2023/03/17 07:16:20;;;;;;;4.13;1.80;;;;;;;12.25;32.01;100044.00;5039871;28;20127;-70
2023/03/17 07:18:46;;;;;;;3.58;1.80;;;;;;;12.38;31.96;100041.75;4991264;28;20040;-70
2023/03/17 07:21:11;;;;;;;5.88;1.65;;;;;;;12.46;31.82;100044.44;5023248;28;20178;-70
2023/03/17 07:23:37;;;;;;;4.63;1.80;;;;;;;12.57;31.45;100052.97;5007084;28;20135;-70
2023/03/17 07:26:03;;;;;;;4.07;1.50;;;;;;;12.70;31.31;100048.03;5039832;28;20068;-69
2023/03/17 07:28:29;;;;;;;4.30;1.50;;;;;;;12.79;31.10;100057.72;5023041;28;20097;-69
2023/03/17 07:30:56;;;;;;;4.20;1.60;;;;;;;13.00;31.08;100059.97;5023412;28;20102;-69
2023/03/17 07:33:23;;;;;;;3.65;1.48;;;;;;;13.06;30.30;100065.50;5007094;28;20143;-70
2023/03/17 07:35:50;;;;;;;3.47;1.63;;;;;;;13.05;30.23;100047.00;5023365;28;20051;-72
2023/03/17 07:38:17;;;;;;;4.05;1.60;;;;;;;13.07;29.90;100052.97;5023184;28;20072;-69
2023/03/17 07:40:46;;;;;;;3.28;1.50;;;;;;;13.29;29.80;100063.03;5039612;28;20070;-70
2023/03/17 07:43:13;;;;;;;4.25;1.60;;;;;;;13.29;29.71;100066.53;5039543;28;20054;-69
2023/03/17 07:45:39;;;;;;;4.53;1.38;;;;;;;13.41;29.31;100059.88;5019714;28;20037;-69
2023/03/17 07:48:06;;;;;;;3.70;1.58;;;;;;;13.88;28.61;100060.03;5038842;28;20377;-70
2023/03/17 07:50:33;;;;;;;4.00;1.90;;;;;;;14.31;28.12;100064.16;5056102;28;20045;-69
2023/03/17 07:52:59;;;;;;;4.72;1.60;;;;;;;14.50;27.72;100077.13;5055970;28;20048;-70
2023/03/17 07:55:25;;;;;;;4.90;1.60;;;;;;;15.22;26.93;100082.13;5022093;28;20097;-70
2023/03/17 07:57:51;;;;;;;5.00;1.42;;;;;;;15.64;26.41;100087.88;5039193;28;20043;-71
2023/03/17 08:00:18;;;;;;;3.63;1.50;;;;;;;16.40;26.29;100093.03;5022975;28;20052;-70
2023/03/17 08:02:45;;;;;;;7.28;2.25;;;;;;;16.75;25.81;100101.19;5055701;28;20114;-70
2023/03/17 08:05:11;;;;;;;5.25;2.30;;;;;;;16.88;25.39;100095.97;5039336;28;20541;-70
2023/03/17 08:07:37;;;;;;;3.42;1.52;;;;;;;17.13;24.44;100096.50;5039030;28;20109;-70
2023/03/17 08:10:07;;;;;;;3.55;1.50;;;;;;;17.56;24.52;100105.50;5038790;28;20504;-70
2023/03/17 08:12:33;;;;;;;6.88;1.60;;;;;;;17.87;23.74;100105.97;5022233;28;20044;-70
2023/03/17 08:14:59;;;;;;;4.10;1.60;;;;;;;18.42;23.10;100106.84;5022569;28;20044;-70
2023/03/17 08:17:26;;;;;;;3.33;1.65;;;;;;;19.77;22.20;100114.88;5022300;28;20373;-70
2023/03/17 08:19:57;;;;;;;5.75;2.50;;;;;;;21.86;20.35;100111.66;5022048;28;20066;-72
2023/03/17 08:22:24;;;;;;;9.52;2.30;;;;;;;23.43;18.41;100134.47;5022134;28;20119;-70
2023/03/17 08:24:50;;;;;;;2.88;1.95;;;;;;;25.34;16.71;100132.66;5038534;28;20105;-70
2023/03/17 08:27:17;;;;;;;9.50;2.03;;;;;;;26.98;15.20;100138.53;5022084;28;20423;-70
2023/03/17 08:29:43;;;;;;;3.25;1.60;;;;;;;27.90;13.85;100139.38;5055364;28;20037;-71
2023/03/17 08:32:09;;;;;;;3.97;1.42;;;;;;;28.86;13.09;100149.19;5038564;28;20044;-71
2023/03/17 08:34:36;;;;;;;4.35;2.20;;;;;;;29.80;12.32;100141.69;5038096;28;20552;-71
2023/03/17 08:37:02;;;;;;;4.60;1.52;;;;;;;29.49;12.32;100146.22;5038590;28;20040;-71
2023/03/17 08:39:28;;;;;;;2.63;1.48;;;;;;;29.64;12.00;100140.00;5022025;28;20082;-72
2023/03/17 08:41:54;;;;;;;3.55;1.40;;;;;;;29.83;11.75;100132.91;5022005;28;20076;-72
2023/03/17 08:44:20;;;;;;;4.75;1.92;;;;;;;29.96;11.42;100135.13;5038384;28;20048;-71
2023/03/17 08:46:48;;;;;;;5.13;2.00;;;;;;;30.72;11.43;100143.06;5005421;28;20476;-71
2023/03/17 08:49:14;;;;;;;4.15;1.33;;;;;;;31.02;11.06;100136.72;5021827;28;20139;-71
2023/03/17 08:51:41;;;;;;;8.85;1.52;;;;;;;30.61;10.60;100135.97;5054514;28;20436;-72
2023/03/17 08:54:07;;;;;;;4.18;1.60;;;;;;;30.46;10.60;100126.94;5038260;28;20044;-71
2023/03/17 08:56:33;;;;;;;3.92;1.42;;;;;;;30.55;10.51;100141.72;5037990;28;20055;-71
2023/03/17 08:58:59;;;;;;;5.45;1.40;;;;;;;30.80;10.50;100150.75;5038018;28;20076;-71
2023/03/17 09:01:26;;;;;;;3.38;1.40;;;;;;;30.44;10.42;100140.09;5021328;28;20448;-72
2023/03/17 09:03:55;;;;;;;4.95;1.50;;;;;;;29.56;10.85;100149.53;5038072;28;20068;-71
2023/03/17 09:06:21;;;;;;;5.40;1.50;;;;;;;29.61;10.82;100144.88;5004406;28;20074;-71
2023/03/17 09:08:53;;;;;;;2.92;1.63;;;;;;;30.89;10.20;100149.09;5037712;28;20136;-71
2023/03/17 09:11:25;;;;;;;5.70;1.50;;;;;;;32.48;9.10;100148.53;5071930;28;20052;-71
2023/03/17 09:13:51;;;;;;;3.28;1.40;;;;;;;32.63;8.87;100158.56;5037969;28;20044;-71
2023/03/17 09:16:18;;;;;;;4.50;1.33;;;;;;;31.78;8.73;100149.03;5021274;28;20048;-71
2023/03/17 09:18:45;;;;;;;3.63;1.30;;;;;;;31.02;9.34;100150.44;5038121;28;20495;-71
2023/03/17 09:21:12;;;;;;;3.85;1.33;;;;;;;30.22;9.35;100145.03;5021446;28;20154;-71
2023/03/17 09:23:38;;;;;;;3.97;1.15;;;;;;;29.20;9.62;100145.81;5005104;28;20075;-71
2023/03/17 09:26:04;;;;;;;2.90;1.50;;;;;;;29.18;10.20;100153.50;5005175;28;20641;-70
2023/03/17 09:28:29;;;;;;;4.97;1.50;;;;;;;28.82;10.11;100145.31;5037714;28;20055;-71
2023/03/17 09:31:02;;;;;;;3.45;1.45;;;;;;;30.15;9.73;100153.50;5021474;28;20036;-74
2023/03/17 09:33:29;;;;;;;2.47;1.40;;;;;;;29.90;9.37;100145.25;5037729;28;20079;-71
2023/03/17 09:35:58;;;;;;;3.05;1.60;;;;;;;30.51;9.20;100157.06;5054508;28;20036;-71
2023/03/17 09:38:25;;;;;;;3.75;1.48;;;;;;;31.78;8.56;100154.53;5038512;28;20076;-71
2023/03/17 09:41:29;;;;;;;2.10;1.27;;;;;;;33.80;7.41;100151.41;5005300;28;20106;-71
2023/03/17 09:44:10;;;;;;;1.83;1.20;;;;;;;33.74;7.32;100150.69;5037551;28;20105;-72
2023/03/17 09:47:12;;;;;;;3.78;1.63;;;;;;;33.92;7.05;100160.09;5037552;28;20480;-71
2023/03/17 09:49:48;;;;;;;2.47;1.15;;;;;;;34.45;6.69;100164.22;5021186;28;20044;-71
2023/03/17 09:52:17;;;;;;;4.22;1.30;;;;;;;35.61;6.14;100166.41;5004565;28;20041;-71
2023/03/17 09:54:45;;;;;;;1.58;1.15;;;;;;;36.70;5.94;100169.63;5037316;28;20197;-72
2023/03/17 09:57:20;;;;;;;3.08;1.20;;;;;;;37.63;5.12;100162.84;5037455;28;20040;-72
2023/03/17 09:59:52;;;;;;;2.55;1.00;;;;;;;38.16;5.03;100155.13;5020563;28;20045;-72
2023/03/17 10:02:26;;;;;;;2.25;1.00;;;;;;;38.29;5.20;100167.97;5037314;28;20054;-72
2023/03/17 10:04:52;;;;;;;2.70;1.10;;;;;;;38.72;4.46;100165.97;5020726;28;20052;-71
2023/03/17 10:07:27;;;;;;;2.55;1.00;;;;;;;39.10;4.61;100168.00;5020778;28;20045;-71
2023/03/17 10:10:29;;;;;;;5.57;1.15;;;;;;;39.37;4.05;100173.06;5053941;28;20044;-72
2023/03/17 10:13:08;;;;;;;2.30;1.20;;;;;;;39.25;4.50;100176.59;5026745;28;20075;-73
2023/03/17 10:15:39;;;;;;;10.75;1.30;;;;;;;39.79;4.20;100178.41;5036669;28;20175;-70
2023/03/17 10:18:14;;;;;;;2.53;1.30;;;;;;;40.47;4.34;100168.72;5055481;28;20044;-73
2023/03/17 10:20:49;;;;;;;3.00;1.20;;;;;;;40.86;4.15;100173.69;5040915;28;20042;-72
2023/03/17 10:23:20;;;;;;;4.05;1.10;;;;;;;41.08;3.86;100173.28;4992352;28;20047;-71
2023/03/17 10:25:47;;;;;;;2.17;1.40;;;;;;;41.34;3.42;100187.72;5040954;28;20048;-75
2023/03/17 10:28:31;;;;;;;3.03;1.02;;;;;;;42.17;2.88;100170.41;5040615;28;20105;-71
2023/03/17 10:31:14;;;;;;;1.17;0.75;;;;;;;41.54;2.69;100169.25;5074845;28;20040;-73
2023/03/17 10:33:40;;;;;;;0.68;0.60;;;;;;;40.92;2.59;100177.09;5057119;28;20041;-73
2023/03/17 10:36:10;;;;;;;0.60;0.60;;;;;;;41.12;2.25;100179.00;5030632;28;20046;-73
2023/03/17 10:38:36;;;;;;;;;;;;;;;40.99;2.05;100189.31;5043434;28;20041;-78
2023/03/17 10:41:08;;;;;;;1.35;0.75;;;;;;;40.46;2.31;100172.63;5022729;28;19946;-76
2023/03/17 10:43:47;;;;;;;1.45;0.70;;;;;;;40.80;2.48;100177.06;5041520;28;20468;-70
2023/03/17 10:46:22;;;;;;;1.35;0.90;;;;;;;40.69;2.02;100179.47;5046104;28;20036;-70
2023/03/17 10:48:52;;;;;;;2.47;0.93;;;;;;;40.11;2.17;100176.88;5034220;28;20060;-72
2023/03/17 10:51:31;;;;;;;1.98;0.80;;;;;;;39.41;2.60;100182.41;5046934;28;20488;-72
2023/03/17 10:54:03;;;;;;;;;;;;;;;39.72;2.49;100191.25;5052436;28;20047;-70
2023/03/17 10:56:35;;;;;;;1.90;1.00;;;;;;;39.53;2.63;100174.16;5037102;28;19971;-72
2023/03/17 10:59:15;;;;;;;1.52;0.82;;;;;;;39.68;2.47;100168.84;5065451;28;20033;-72
2023/03/17 11:01:49;;;;;;;2.03;0.90;;;;;;;39.40;2.46;100186.31;5038361;28;20079;-72
2023/03/17 11:04:37;;;;;;;3.65;1.20;;;;;;;39.06;2.69;100198.41;5038004;28;20075;-76
2023/03/17 11:07:26;;;;;;;5.10;1.10;;;;;;;38.63;3.01;100190.19;5018870;28;20131;-71
2023/03/17 11:09:57;;;;;;;2.08;1.35;;;;;;;37.95;2.93;100183.81;5029625;28;20037;-73
2023/03/17 11:12:26;;;;;;;3.00;1.50;;;;;;;37.58;2.92;100193.47;5031300;28;20063;-70
2023/03/17 11:15:02;;;;;;;2.67;1.10;;;;;;;37.26;2.96;100193.88;5046541;28;20137;-72
2023/03/17 11:17:53;;;;;;;5.20;2.03;;;;;;;36.51;3.42;100193.09;5038510;28;20090;-73
2023/03/17 11:20:21;;;;;;;5.97;2.53;;;;;;;36.52;3.92;100208.59;5035318;28;20044;-71
2023/03/17 11:23:02;;;;;;;3.53;1.60;;;;;;;36.93;3.50;100200.88;5019393;28;20408;-70
2023/03/17 11:25:28;;;;;;;6.93;1.55;;;;;;;37.06;3.38;100200.78;5034671;28;20044;-70
2023/03/17 11:28:16;;;;;;;4.47;1.88;;;;;;;37.84;3.50;100216.59;5034929;28;20087;-69
2023/03/17 11:31:08;;;;;;;4.20;2.00;;;;;;;37.76;3.57;100220.16;5018895;28;20120;-70
2023/03/17 11:33:56;;;;;;;5.35;1.40;;;;;;;38.44;3.54;100211.09;5040202;28;20048;-70
2023/03/17 11:36:50;;;;;;;2.92;1.10;;;;;;;38.13;3.11;100208.50;5051641;28;20139;-70
2023/03/17 11:39:45;;;;;;;3.42;1.08;;;;;;;37.43;2.84;100224.44;5036365;28;20447;-71
2023/03/17 11:42:11;;;;;;;1.92;1.00;;;;;;;35.78;3.44;100215.53;5037427;28;20052;-69
2023/03/17 11:45:09;;;;;;;3.60;1.17;;;;;;;35.32;3.36;100210.09;5020933;28;20090;-71